PWSweather.com
Personal Weather Stations
Station Observations
SELKIRK1
Ontario, Selkirk, ON N0A 1P0

OntarioSelkirk, ON N0A 1P0

Lat: 42.8083652, Lon: -79.94971040000001

Elevation: 583

Station Type: Acurite 5 in 1

http://gavinsurf.com

High Low Average
Temperature 69.7°F20.9°C 50.2°F10.1°C 59.3°F15.2°C
Dew Point 62.9°F17.2°C 49.9°F9.9°C 56.5°F13.6°C
Winds 6.9 mph 11.1 kmh Calm Calm 3.0 mph SW4.8 kmh SW
Wind Gusts 8.1 mph13.0 kmh -- 3.0 mph4.8 kmh
Humidity 99% 73% 91%
Pressure 31.83 in1077.9 mb 31.83 in1077.9 mb -
Precipitation 0.00 in0.0 mm - -
Hour Temp Dew Point Humidity Winds Wind Gusts Pressure Precip Precip Rate Daily Precip Total
12:00 AM 50.2°F10.1°C 49.9°F9.9°C 99% 1.2 mph W1.9 kmh W 2.3 mph3.7 kmh 31.83 in1077.9 mb - 0.00 in0.0 mm 0.00 in0.0 mm
12:10 AM 50.0°F10.0°C 49.7°F9.8°C 99% 1.2 mph WNW1.9 kmh WNW 1.2 mph1.9 kmh 31.83 in1077.9 mb - 0.00 in0.0 mm 0.00 in0.0 mm
12:15 AM 49.8°F9.9°C 49.5°F9.7°C 99% 2.3 mph N3.7 kmh N 2.3 mph3.7 kmh 31.83 in1077.9 mb - 0.00 in0.0 mm 0.00 in0.0 mm
12:20 AM 49.8°F9.9°C 49.5°F9.7°C 99% 1.2 mph NW1.9 kmh NW 2.3 mph3.7 kmh 31.83 in1077.9 mb - 0.00 in0.0 mm 0.00 in0.0 mm
12:25 AM 49.8°F9.9°C 49.5°F9.7°C 99% 3.5 mph SW5.6 kmh SW 4.6 mph7.4 kmh 31.83 in1077.9 mb - 0.00 in0.0 mm 0.00 in0.0 mm
12:30 AM 50.0°F10.0°C 49.7°F9.8°C 99% 3.5 mph SW5.6 kmh SW 3.5 mph5.6 kmh 31.83 in1077.9 mb - 0.00 in0.0 mm 0.00 in0.0 mm
12:35 AM 50.2°F10.1°C 49.9°F9.9°C 99% 2.3 mph W3.7 kmh W 2.3 mph3.7 kmh 31.83 in1077.9 mb - 0.00 in0.0 mm 0.00 in0.0 mm
12:40 AM 50.2°F10.1°C 49.9°F9.9°C 99% 2.3 mph W3.7 kmh W 3.5 mph5.6 kmh 31.83 in1077.9 mb - 0.00 in0.0 mm 0.00 in0.0 mm
12:45 AM 50.2°F10.1°C 49.9°F9.9°C 99% 1.2 mph W1.9 kmh W 1.2 mph1.9 kmh 31.83 in1077.9 mb - 0.00 in0.0 mm 0.00 in0.0 mm
12:50 AM 50.0°F10.0°C 49.7°F9.8°C 99% 1.2 mph W1.9 kmh W 2.3 mph3.7 kmh 31.83 in1077.9 mb - 0.00 in0.0 mm 0.00 in0.0 mm
12:55 AM 50.2°F10.1°C 49.9°F9.9°C 99% 2.3 mph W3.7 kmh W 2.3 mph3.7 kmh 31.83 in1077.9 mb - 0.00 in0.0 mm 0.00 in0.0 mm
01:00 AM 50.2°F10.1°C 49.9°F9.9°C 99% Calm Calm 1.2 mph1.9 kmh 31.83 in1077.9 mb - 0.00 in0.0 mm 0.00 in0.0 mm
01:10 AM 50.2°F10.1°C 49.9°F9.9°C 99% 2.3 mph WSW3.7 kmh WSW 3.5 mph5.6 kmh 31.83 in1077.9 mb - 0.00 in0.0 mm 0.00 in0.0 mm
01:15 AM 50.6°F10.3°C 50.3°F10.2°C 99% 3.5 mph WSW5.6 kmh WSW 3.5 mph5.6 kmh 31.83 in1077.9 mb - 0.00 in0.0 mm 0.00 in0.0 mm
01:20 AM 50.9°F10.5°C 50.6°F10.3°C 99% 2.3 mph W3.7 kmh W 4.6 mph7.4 kmh 31.83 in1077.9 mb - 0.00 in0.0 mm 0.00 in0.0 mm
01:25 AM 50.9°F10.5°C 50.6°F10.3°C 99% 2.3 mph WSW3.7 kmh WSW 2.3 mph3.7 kmh 31.83 in1077.9 mb - 0.00 in0.0 mm 0.00 in0.0 mm
01:30 AM 50.9°F10.5°C 50.6°F10.3°C 99% 3.5 mph SW5.6 kmh SW 4.6 mph7.4 kmh 31.83 in1077.9 mb - 0.00 in0.0 mm 0.00 in0.0 mm
01:35 AM 51.3°F10.7°C 51.0°F10.6°C 99% 3.5 mph SW5.6 kmh SW 4.6 mph7.4 kmh 31.83 in1077.9 mb - 0.00 in0.0 mm 0.00 in0.0 mm
01:40 AM 51.3°F10.7°C 51.0°F10.6°C 99% 3.5 mph WSW5.6 kmh WSW 3.5 mph5.6 kmh 31.83 in1077.9 mb - 0.00 in0.0 mm 0.00 in0.0 mm
01:45 AM 51.3°F10.7°C 51.0°F10.6°C 99% 1.2 mph W1.9 kmh W 2.3 mph3.7 kmh 31.83 in1077.9 mb - 0.00 in0.0 mm 0.00 in0.0 mm
01:50 AM 51.3°F10.7°C 51.0°F10.6°C 99% 3.5 mph WSW5.6 kmh WSW 3.5 mph5.6 kmh 31.83 in1077.9 mb - 0.00 in0.0 mm 0.00 in0.0 mm
01:55 AM 51.3°F10.7°C 51.0°F10.6°C 99% 3.5 mph W5.6 kmh W 5.8 mph9.3 kmh 31.83 in1077.9 mb - 0.00 in0.0 mm 0.00 in0.0 mm
02:00 AM 51.3°F10.7°C 51.0°F10.6°C 99% 2.3 mph W3.7 kmh W 2.3 mph3.7 kmh 31.83 in1077.9 mb - 0.00 in0.0 mm 0.00 in0.0 mm
02:10 AM 51.5°F10.8°C 51.2°F10.7°C 99% 2.3 mph WSW3.7 kmh WSW 3.5 mph5.6 kmh 31.83 in1077.9 mb - 0.00 in0.0 mm 0.00 in0.0 mm
02:15 AM 51.6°F10.9°C 51.3°F10.7°C 99% 2.3 mph WSW3.7 kmh WSW 3.5 mph5.6 kmh 31.83 in1077.9 mb - 0.00 in0.0 mm 0.00 in0.0 mm
02:20 AM 51.6°F10.9°C 51.3°F10.7°C 99% 2.3 mph WSW3.7 kmh WSW 2.3 mph3.7 kmh 31.83 in1077.9 mb - 0.00 in0.0 mm 0.00 in0.0 mm
02:25 AM 51.6°F10.9°C 51.3°F10.7°C 99% Calm Calm -- 31.83 in1077.9 mb - 0.00 in0.0 mm 0.00 in0.0 mm
02:30 AM 51.6°F10.9°C 51.3°F10.7°C 99% 1.2 mph N1.9 kmh N 1.2 mph1.9 kmh 31.83 in1077.9 mb - 0.00 in0.0 mm 0.00 in0.0 mm
02:35 AM 51.6°F10.9°C 51.3°F10.7°C 99% Calm Calm -- 31.83 in1077.9 mb - 0.00 in0.0 mm 0.00 in0.0 mm
02:40 AM 51.6°F10.9°C 51.3°F10.7°C 99% Calm Calm -- 31.83 in1077.9 mb - 0.00 in0.0 mm 0.00 in0.0 mm
02:45 AM 51.6°F10.9°C 51.3°F10.7°C 99% Calm Calm -- 31.83 in1077.9 mb - 0.00 in0.0 mm 0.00 in0.0 mm
02:50 AM 51.6°F10.9°C 51.3°F10.7°C 99% Calm Calm 2.3 mph3.7 kmh 31.83 in1077.9 mb - 0.00 in0.0 mm 0.00 in0.0 mm
02:55 AM 51.7°F10.9°C 51.2°F10.7°C 98% 2.3 mph SW3.7 kmh SW 2.3 mph3.7 kmh 31.83 in1077.9 mb - 0.00 in0.0 mm 0.00 in0.0 mm
03:00 AM 51.5°F10.8°C 51.2°F10.7°C 99% 1.2 mph WSW1.9 kmh WSW 1.2 mph1.9 kmh 31.83 in1077.9 mb - 0.00 in0.0 mm 0.00 in0.0 mm
03:10 AM 51.3°F10.7°C 51.0°F10.6°C 99% 2.3 mph SW3.7 kmh SW 2.3 mph3.7 kmh 31.83 in1077.9 mb - 0.00 in0.0 mm 0.00 in0.0 mm
03:15 AM 51.3°F10.7°C 51.0°F10.6°C 99% 2.3 mph SW3.7 kmh SW 3.5 mph5.6 kmh 31.83 in1077.9 mb - 0.00 in0.0 mm 0.00 in0.0 mm
03:20 AM 51.1°F10.6°C 50.8°F10.4°C 99% 2.3 mph SW3.7 kmh SW 2.3 mph3.7 kmh 31.83 in1077.9 mb - 0.00 in0.0 mm 0.00 in0.0 mm
03:25 AM 50.9°F10.5°C 50.6°F10.3°C 99% 2.3 mph SW3.7 kmh SW 2.3 mph3.7 kmh 31.83 in1077.9 mb - 0.00 in0.0 mm 0.00 in0.0 mm
03:30 AM 50.9°F10.5°C 50.6°F10.3°C 99% 2.3 mph WSW3.7 kmh WSW 2.3 mph3.7 kmh 31.83 in1077.9 mb - 0.00 in0.0 mm 0.00 in0.0 mm
03:35 AM 51.1°F10.6°C 50.8°F10.4°C 99% 3.5 mph SSW5.6 kmh SSW 4.6 mph7.4 kmh 31.83 in1077.9 mb - 0.00 in0.0 mm 0.00 in0.0 mm
03:40 AM 51.3°F10.7°C 51.0°F10.6°C 99% 2.3 mph SW3.7 kmh SW 2.3 mph3.7 kmh 31.83 in1077.9 mb - 0.00 in0.0 mm 0.00 in0.0 mm
03:45 AM 51.6°F10.9°C 51.3°F10.7°C 99% 2.3 mph SW3.7 kmh SW 3.5 mph5.6 kmh 31.83 in1077.9 mb - 0.00 in0.0 mm 0.00 in0.0 mm
03:50 AM 51.8°F11.0°C 51.5°F10.8°C 99% 3.5 mph WSW5.6 kmh WSW 3.5 mph5.6 kmh 31.83 in1077.9 mb - 0.00 in0.0 mm 0.00 in0.0 mm
03:55 AM 52.0°F11.1°C 51.7°F10.9°C 99% 3.5 mph WSW5.6 kmh WSW 3.5 mph5.6 kmh 31.83 in1077.9 mb - 0.00 in0.0 mm 0.00 in0.0 mm
04:00 AM 52.2°F11.2°C 51.9°F11.1°C 99% 2.3 mph WSW3.7 kmh WSW 3.5 mph5.6 kmh 31.83 in1077.9 mb - 0.00 in0.0 mm 0.00 in0.0 mm
04:10 AM 52.4°F11.3°C 52.1°F11.2°C 99% 2.3 mph WSW3.7 kmh WSW 2.3 mph3.7 kmh 31.83 in1077.9 mb - 0.00 in0.0 mm 0.00 in0.0 mm
04:15 AM 52.5°F11.4°C 52.2°F11.2°C 99% 2.3 mph WSW3.7 kmh WSW 3.5 mph5.6 kmh 31.83 in1077.9 mb - 0.00 in0.0 mm 0.00 in0.0 mm
04:20 AM 52.5°F11.4°C 52.2°F11.2°C 99% 3.5 mph SSW5.6 kmh SSW 3.5 mph5.6 kmh 31.83 in1077.9 mb - 0.00 in0.0 mm 0.00 in0.0 mm
04:25 AM 52.7°F11.5°C 52.1°F11.2°C 98% 2.3 mph SW3.7 kmh SW 2.3 mph3.7 kmh 31.83 in1077.9 mb - 0.00 in0.0 mm 0.00 in0.0 mm
04:30 AM 52.7°F11.5°C 52.1°F11.2°C 98% 2.3 mph SW3.7 kmh SW 3.5 mph5.6 kmh 31.83 in1077.9 mb - 0.00 in0.0 mm 0.00 in0.0 mm
04:35 AM 52.7°F11.5°C 52.1°F11.2°C 98% 2.3 mph SW3.7 kmh SW 2.3 mph3.7 kmh 31.83 in1077.9 mb - 0.00 in0.0 mm 0.00 in0.0 mm
04:40 AM 52.7°F11.5°C 52.1°F11.2°C 98% 2.3 mph SW3.7 kmh SW 3.5 mph5.6 kmh 31.83 in1077.9 mb - 0.00 in0.0 mm 0.00 in0.0 mm
04:45 AM 52.7°F11.5°C 52.1°F11.2°C 98% 2.3 mph SW3.7 kmh SW 2.3 mph3.7 kmh 31.83 in1077.9 mb - 0.00 in0.0 mm 0.00 in0.0 mm
04:50 AM 52.7°F11.5°C 52.1°F11.2°C 98% 2.3 mph SW3.7 kmh SW 2.3 mph3.7 kmh 31.83 in1077.9 mb - 0.00 in0.0 mm 0.00 in0.0 mm
04:55 AM 52.7°F11.5°C 52.1°F11.2°C 98% 2.3 mph SW3.7 kmh SW 2.3 mph3.7 kmh 31.83 in1077.9 mb - 0.00 in0.0 mm 0.00 in0.0 mm
05:00 AM 52.9°F11.6°C 52.3°F11.3°C 98% 2.3 mph SW3.7 kmh SW 2.3 mph3.7 kmh 31.83 in1077.9 mb - 0.00 in0.0 mm 0.00 in0.0 mm
05:10 AM 53.3°F11.8°C 52.5°F11.4°C 97% 2.3 mph SW3.7 kmh SW 2.3 mph3.7 kmh 31.83 in1077.9 mb - 0.00 in0.0 mm 0.00 in0.0 mm
05:15 AM 53.3°F11.8°C 52.5°F11.4°C 97% 2.3 mph SW3.7 kmh SW 4.6 mph7.4 kmh 31.83 in1077.9 mb - 0.00 in0.0 mm 0.00 in0.0 mm
05:20 AM 53.3°F11.8°C 52.5°F11.4°C 97% 2.3 mph SW3.7 kmh SW 2.3 mph3.7 kmh 31.83 in1077.9 mb - 0.00 in0.0 mm 0.00 in0.0 mm
05:25 AM 53.3°F11.8°C 52.5°F11.4°C 97% 2.3 mph SW3.7 kmh SW 2.3 mph3.7 kmh 31.83 in1077.9 mb - 0.00 in0.0 mm 0.00 in0.0 mm
05:30 AM 53.3°F11.8°C 52.5°F11.4°C 97% 2.3 mph SW3.7 kmh SW 2.3 mph3.7 kmh 31.83 in1077.9 mb - 0.00 in0.0 mm 0.00 in0.0 mm
05:35 AM 53.3°F11.8°C 52.7°F11.5°C 98% 2.3 mph SW3.7 kmh SW 2.3 mph3.7 kmh 31.83 in1077.9 mb - 0.00 in0.0 mm 0.00 in0.0 mm
05:40 AM 53.3°F11.8°C 53.0°F11.7°C 99% 1.2 mph SW1.9 kmh SW 1.2 mph1.9 kmh 31.83 in1077.9 mb - 0.00 in0.0 mm 0.00 in0.0 mm
05:45 AM 53.3°F11.8°C 53.0°F11.7°C 99% Calm Calm 1.2 mph1.9 kmh 31.83 in1077.9 mb - 0.00 in0.0 mm 0.00 in0.0 mm
05:50 AM 53.1°F11.7°C 52.8°F11.6°C 99% 1.2 mph SW1.9 kmh SW 1.2 mph1.9 kmh 31.83 in1077.9 mb - 0.00 in0.0 mm 0.00 in0.0 mm
05:55 AM 52.9°F11.6°C 52.6°F11.4°C 99% 2.3 mph SW3.7 kmh SW 2.3 mph3.7 kmh 31.83 in1077.9 mb - 0.00 in0.0 mm 0.00 in0.0 mm
06:00 AM 53.0°F11.7°C 52.8°F11.6°C 99% 2.3 mph SW3.7 kmh SW 3.5 mph5.6 kmh 31.83 in1077.9 mb - 0.00 in0.0 mm 0.00 in0.0 mm
06:10 AM 53.1°F11.7°C 52.8°F11.6°C 99% 2.3 mph SW3.7 kmh SW 2.3 mph3.7 kmh 31.83 in1077.9 mb - 0.00 in0.0 mm 0.00 in0.0 mm
06:15 AM 53.1°F11.7°C 52.8°F11.6°C 99% 3.5 mph SW5.6 kmh SW 4.6 mph7.4 kmh 31.83 in1077.9 mb - 0.00 in0.0 mm 0.00 in0.0 mm
06:20 AM 53.2°F11.8°C 52.9°F11.6°C 99% 2.3 mph SSW3.7 kmh SSW 3.5 mph5.6 kmh 31.83 in1077.9 mb - 0.00 in0.0 mm 0.00 in0.0 mm
06:25 AM 53.3°F11.8°C 53.0°F11.7°C 99% 3.5 mph SW5.6 kmh SW 2.3 mph3.7 kmh 31.83 in1077.9 mb - 0.00 in0.0 mm 0.00 in0.0 mm
06:30 AM 53.3°F11.8°C 53.0°F11.7°C 99% 3.5 mph SW5.6 kmh SW 3.5 mph5.6 kmh 31.83 in1077.9 mb - 0.00 in0.0 mm 0.00 in0.0 mm
06:35 AM 53.3°F11.8°C 53.0°F11.7°C 99% 3.5 mph WSW5.6 kmh WSW 3.5 mph5.6 kmh 31.83 in1077.9 mb - 0.00 in0.0 mm 0.00 in0.0 mm
06:40 AM 53.4°F11.9°C 53.1°F11.7°C 99% 2.3 mph SSW3.7 kmh SSW 3.5 mph5.6 kmh 31.83 in1077.9 mb - 0.00 in0.0 mm 0.00 in0.0 mm
06:45 AM 53.4°F11.9°C 53.1°F11.7°C 99% 3.5 mph SSW5.6 kmh SSW 3.5 mph5.6 kmh 31.83 in1077.9 mb - 0.00 in0.0 mm 0.00 in0.0 mm
06:50 AM 53.4°F11.9°C 53.1°F11.7°C 99% 2.3 mph SSW3.7 kmh SSW 2.3 mph3.7 kmh 31.83 in1077.9 mb - 0.00 in0.0 mm 0.00 in0.0 mm
06:55 AM 53.4°F11.9°C 53.1°F11.7°C 99% 2.3 mph SW3.7 kmh SW 2.3 mph3.7 kmh 31.83 in1077.9 mb - 0.00 in0.0 mm 0.00 in0.0 mm
07:00 AM 53.4°F11.9°C 53.1°F11.7°C 99% 2.3 mph SW3.7 kmh SW 3.5 mph5.6 kmh 31.83 in1077.9 mb - 0.00 in0.0 mm 0.00 in0.0 mm
07:10 AM 53.4°F11.9°C 53.1°F11.7°C 99% 2.3 mph SSW3.7 kmh SSW 3.5 mph5.6 kmh 31.83 in1077.9 mb - 0.00 in0.0 mm 0.00 in0.0 mm
07:15 AM 53.6°F12.0°C 53.3°F11.8°C 99% 3.5 mph SSW5.6 kmh SSW 3.5 mph5.6 kmh 31.83 in1077.9 mb - 0.00 in0.0 mm 0.00 in0.0 mm
07:20 AM 53.6°F12.0°C 53.3°F11.8°C 99% 3.5 mph SW5.6 kmh SW 4.6 mph7.4 kmh 31.83 in1077.9 mb - 0.00 in0.0 mm 0.00 in0.0 mm
07:25 AM 53.7°F12.1°C 53.4°F11.9°C 99% 3.5 mph SSW5.6 kmh SSW 3.5 mph5.6 kmh 31.83 in1077.9 mb - 0.00 in0.0 mm 0.00 in0.0 mm
07:30 AM 53.8°F12.1°C 53.5°F11.9°C 99% 3.5 mph SW5.6 kmh SW 3.5 mph5.6 kmh 31.83 in1077.9 mb - 0.00 in0.0 mm 0.00 in0.0 mm
07:35 AM 54.0°F12.2°C 53.7°F12.1°C 99% 4.6 mph SW7.4 kmh SW 5.8 mph9.3 kmh 31.83 in1077.9 mb - 0.00 in0.0 mm 0.00 in0.0 mm
07:40 AM 54.2°F12.3°C 53.9°F12.2°C 99% 3.5 mph SW5.6 kmh SW 4.6 mph7.4 kmh 31.83 in1077.9 mb - 0.00 in0.0 mm 0.00 in0.0 mm
07:45 AM 54.2°F12.3°C 53.9°F12.2°C 99% 4.6 mph SW7.4 kmh SW 4.6 mph7.4 kmh 31.83 in1077.9 mb - 0.00 in0.0 mm 0.00 in0.0 mm
07:50 AM 54.2°F12.3°C 53.9°F12.2°C 99% 4.6 mph SW7.4 kmh SW 5.8 mph9.3 kmh 31.83 in1077.9 mb - 0.00 in0.0 mm 0.00 in0.0 mm
07:55 AM 54.3°F12.4°C 54.0°F12.2°C 99% 3.5 mph SW5.6 kmh SW 4.6 mph7.4 kmh 31.83 in1077.9 mb - 0.00 in0.0 mm 0.00 in0.0 mm
08:00 AM 54.3°F12.4°C 54.0°F12.2°C 99% 3.5 mph SW5.6 kmh SW 4.6 mph7.4 kmh 31.83 in1077.9 mb - 0.00 in0.0 mm 0.00 in0.0 mm
08:10 AM 54.8°F12.7°C 54.5°F12.5°C 99% 4.6 mph SW7.4 kmh SW 5.8 mph9.3 kmh 31.83 in1077.9 mb - 0.00 in0.0 mm 0.00 in0.0 mm
08:15 AM 55.1°F12.8°C 54.6°F12.6°C 98% 3.5 mph SW5.6 kmh SW 4.6 mph7.4 kmh 31.83 in1077.9 mb - 0.00 in0.0 mm 0.00 in0.0 mm
08:20 AM 55.4°F13.0°C 54.5°F12.5°C 97% 3.5 mph SW5.6 kmh SW 4.6 mph7.4 kmh 31.83 in1077.9 mb - 0.00 in0.0 mm 0.00 in0.0 mm
08:25 AM 54.9°F12.7°C 54.0°F12.2°C 97% 4.6 mph SW7.4 kmh SW 4.6 mph7.4 kmh 31.83 in1077.9 mb - 0.00 in0.0 mm 0.00 in0.0 mm
08:30 AM 54.5°F12.5°C 53.6°F12.0°C 97% 4.6 mph SW7.4 kmh SW 4.6 mph7.4 kmh 31.83 in1077.9 mb - 0.00 in0.0 mm 0.00 in0.0 mm
08:35 AM 55.1°F12.8°C 54.3°F12.4°C 97% 3.5 mph SSW5.6 kmh SSW 4.6 mph7.4 kmh 31.83 in1077.9 mb - 0.00 in0.0 mm 0.00 in0.0 mm
08:40 AM 55.8°F13.2°C 55.0°F12.8°C 97% 3.5 mph WSW5.6 kmh WSW 4.6 mph7.4 kmh 31.83 in1077.9 mb - 0.00 in0.0 mm 0.00 in0.0 mm
08:45 AM 56.4°F13.6°C 55.5°F13.1°C 97% 4.6 mph SSW7.4 kmh SSW 5.8 mph9.3 kmh 31.83 in1077.9 mb - 0.00 in0.0 mm 0.00 in0.0 mm
08:50 AM 55.8°F13.2°C 54.7°F12.6°C 96% 3.5 mph SSW5.6 kmh SSW 4.6 mph7.4 kmh 31.83 in1077.9 mb - 0.00 in0.0 mm 0.00 in0.0 mm
08:55 AM 56.2°F13.4°C 55.0°F12.8°C 96% 3.5 mph SW5.6 kmh SW 4.6 mph7.4 kmh 31.83 in1077.9 mb - 0.00 in0.0 mm 0.00 in0.0 mm
09:00 AM 56.3°F13.5°C 55.2°F12.9°C 96% 4.6 mph SW7.4 kmh SW 4.6 mph7.4 kmh 31.83 in1077.9 mb - 0.00 in0.0 mm 0.00 in0.0 mm
09:10 AM 56.3°F13.5°C 55.2°F12.9°C 96% 4.6 mph SW7.4 kmh SW 4.6 mph7.4 kmh 31.83 in1077.9 mb - 0.00 in0.0 mm 0.00 in0.0 mm
09:15 AM 56.9°F13.8°C 55.5°F13.1°C 95% 3.5 mph SW5.6 kmh SW 4.6 mph7.4 kmh 31.83 in1077.9 mb - 0.00 in0.0 mm 0.00 in0.0 mm
09:20 AM 57.0°F13.9°C 55.3°F12.9°C 94% 3.5 mph SW5.6 kmh SW 4.6 mph7.4 kmh 31.83 in1077.9 mb - 0.00 in0.0 mm 0.00 in0.0 mm
09:25 AM 57.4°F14.1°C 55.4°F13.0°C 93% 4.6 mph SW7.4 kmh SW 5.8 mph9.3 kmh 31.83 in1077.9 mb - 0.00 in0.0 mm 0.00 in0.0 mm
09:30 AM 57.2°F14.0°C 55.2°F12.9°C 93% 4.6 mph SW7.4 kmh SW 5.8 mph9.3 kmh 31.83 in1077.9 mb - 0.00 in0.0 mm 0.00 in0.0 mm
09:35 AM 57.3°F14.1°C 55.3°F12.9°C 93% 4.6 mph SSW7.4 kmh SSW 5.8 mph9.3 kmh 31.83 in1077.9 mb - 0.00 in0.0 mm 0.00 in0.0 mm
09:40 AM 57.5°F14.2°C 55.5°F13.1°C 93% 4.6 mph SSW7.4 kmh SSW 5.8 mph9.3 kmh 31.83 in1077.9 mb - 0.00 in0.0 mm 0.00 in0.0 mm
09:45 AM 57.8°F14.3°C 55.5°F13.1°C 92% 5.8 mph SSW9.3 kmh SSW 5.8 mph9.3 kmh 31.83 in1077.9 mb - 0.00 in0.0 mm 0.00 in0.0 mm
09:50 AM 57.2°F14.0°C 55.2°F12.9°C 93% 4.6 mph SW7.4 kmh SW 4.6 mph7.4 kmh 31.83 in1077.9 mb - 0.00 in0.0 mm 0.00 in0.0 mm
09:55 AM 57.0°F13.9°C 55.0°F12.8°C 93% 4.6 mph SW7.4 kmh SW 4.6 mph7.4 kmh 31.83 in1077.9 mb - 0.00 in0.0 mm 0.00 in0.0 mm
10:00 AM 56.8°F13.8°C 54.8°F12.7°C 93% 3.5 mph SSW5.6 kmh SSW 4.6 mph7.4 kmh 31.83 in1077.9 mb - 0.00 in0.0 mm 0.00 in0.0 mm
10:10 AM 57.1°F13.9°C 54.8°F12.7°C 92% 4.6 mph SSW7.4 kmh SSW 5.8 mph9.3 kmh 31.83 in1077.9 mb - 0.00 in0.0 mm 0.00 in0.0 mm
10:15 AM 57.6°F14.2°C 55.0°F12.8°C 91% 4.6 mph SW7.4 kmh SW 5.8 mph9.3 kmh 31.83 in1077.9 mb - 0.00 in0.0 mm 0.00 in0.0 mm
10:20 AM 57.7°F14.3°C 55.0°F12.8°C 91% 4.6 mph SSW7.4 kmh SSW 5.8 mph9.3 kmh 31.83 in1077.9 mb - 0.00 in0.0 mm 0.00 in0.0 mm
10:25 AM 57.8°F14.3°C 55.2°F12.9°C 91% 4.6 mph SSW7.4 kmh SSW 4.6 mph7.4 kmh 31.83 in1077.9 mb - 0.00 in0.0 mm 0.00 in0.0 mm
10:30 AM 58.1°F14.5°C 55.5°F13.1°C 91% 4.6 mph S7.4 kmh S 4.6 mph7.4 kmh 31.83 in1077.9 mb - 0.00 in0.0 mm 0.00 in0.0 mm
10:35 AM 57.2°F14.0°C 54.6°F12.6°C 91% 4.6 mph SW7.4 kmh SW 4.6 mph7.4 kmh 31.83 in1077.9 mb - 0.00 in0.0 mm 0.00 in0.0 mm
10:40 AM 56.7°F13.7°C 54.7°F12.6°C 93% 4.6 mph SW7.4 kmh SW 5.8 mph9.3 kmh 31.83 in1077.9 mb - 0.00 in0.0 mm 0.00 in0.0 mm
10:45 AM 57.8°F14.3°C 55.4°F13.0°C 92% 4.6 mph SSW7.4 kmh SSW 5.8 mph9.3 kmh 31.83 in1077.9 mb - 0.00 in0.0 mm 0.00 in0.0 mm
10:50 AM 56.5°F13.6°C 54.5°F12.5°C 93% 4.6 mph SW7.4 kmh SW 5.8 mph9.3 kmh 31.83 in1077.9 mb - 0.00 in0.0 mm 0.00 in0.0 mm
10:55 AM 57.9°F14.4°C 55.6°F13.1°C 92% 4.6 mph SW7.4 kmh SW 5.8 mph9.3 kmh 31.83 in1077.9 mb - 0.00 in0.0 mm 0.00 in0.0 mm
11:00 AM 58.7°F14.8°C 55.8°F13.2°C 90% 5.8 mph SW9.3 kmh SW 5.8 mph9.3 kmh 31.83 in1077.9 mb - 0.00 in0.0 mm 0.00 in0.0 mm
11:10 AM 58.7°F14.8°C 55.8°F13.2°C 90% 5.8 mph SW9.3 kmh SW 5.8 mph9.3 kmh 31.83 in1077.9 mb - 0.00 in0.0 mm 0.00 in0.0 mm
11:15 AM 58.8°F14.9°C 55.9°F13.3°C 90% 4.6 mph SSW7.4 kmh SSW 5.8 mph9.3 kmh 31.83 in1077.9 mb - 0.00 in0.0 mm 0.00 in0.0 mm
11:20 AM 59.4°F15.2°C 56.1°F13.4°C 89% 4.6 mph SSW7.4 kmh SSW 5.8 mph9.3 kmh 31.83 in1077.9 mb - 0.00 in0.0 mm 0.00 in0.0 mm
11:25 AM 59.0°F15.0°C 55.4°F13.0°C 88% 4.6 mph SSW7.4 kmh SSW 5.8 mph9.3 kmh 31.83 in1077.9 mb - 0.00 in0.0 mm 0.00 in0.0 mm
11:30 AM 59.5°F15.3°C 56.3°F13.5°C 89% 6.9 mph SW11.1 kmh SW 6.9 mph11.1 kmh 31.83 in1077.9 mb - 0.00 in0.0 mm 0.00 in0.0 mm
11:35 AM 59.6°F15.3°C 56.0°F13.3°C 88% 5.8 mph SW9.3 kmh SW 5.8 mph9.3 kmh 31.83 in1077.9 mb - 0.00 in0.0 mm 0.00 in0.0 mm
11:40 AM 59.4°F15.2°C 55.8°F13.2°C 88% 5.8 mph SW9.3 kmh SW 5.8 mph9.3 kmh 31.83 in1077.9 mb - 0.00 in0.0 mm 0.00 in0.0 mm
11:45 AM 59.6°F15.3°C 56.0°F13.3°C 88% 6.9 mph SSW11.1 kmh SSW 6.9 mph11.1 kmh 31.83 in1077.9 mb - 0.00 in0.0 mm 0.00 in0.0 mm
11:50 AM 59.7°F15.4°C 56.1°F13.4°C 88% 6.9 mph WSW11.1 kmh WSW 6.9 mph11.1 kmh 31.83 in1077.9 mb - 0.00 in0.0 mm 0.00 in0.0 mm
11:55 AM 60.0°F15.6°C 56.4°F13.6°C 88% 6.9 mph SSW11.1 kmh SSW 6.9 mph11.1 kmh 31.83 in1077.9 mb - 0.00 in0.0 mm 0.00 in0.0 mm
12:00 PM 60.1°F15.6°C 56.5°F13.6°C 88% 6.9 mph SW11.1 kmh SW 6.9 mph11.1 kmh 31.83 in1077.9 mb - 0.00 in0.0 mm 0.00 in0.0 mm
12:10 PM 60.6°F15.9°C 56.7°F13.7°C 87% 6.9 mph S11.1 kmh S 6.9 mph11.1 kmh 31.83 in1077.9 mb - 0.00 in0.0 mm 0.00 in0.0 mm
12:15 PM 61.2°F16.2°C 57.3°F14.1°C 87% 6.9 mph SW11.1 kmh SW 6.9 mph11.1 kmh 31.83 in1077.9 mb - 0.00 in0.0 mm 0.00 in0.0 mm
12:20 PM 61.7°F16.5°C 57.5°F14.2°C 86% 5.8 mph SW9.3 kmh SW 8.1 mph13.0 kmh 31.83 in1077.9 mb - 0.00 in0.0 mm 0.00 in0.0 mm
12:25 PM 62.1°F16.7°C 57.8°F14.3°C 86% 5.8 mph SW9.3 kmh SW 5.8 mph9.3 kmh 31.83 in1077.9 mb - 0.00 in0.0 mm 0.00 in0.0 mm
12:30 PM 62.1°F16.7°C 57.8°F14.3°C 86% 5.8 mph SW9.3 kmh SW 6.9 mph11.1 kmh 31.83 in1077.9 mb - 0.00 in0.0 mm 0.00 in0.0 mm
12:35 PM 61.6°F16.4°C 57.4°F14.1°C 86% 5.8 mph SW9.3 kmh SW 5.8 mph9.3 kmh 31.83 in1077.9 mb - 0.00 in0.0 mm 0.00 in0.0 mm
12:40 PM 61.9°F16.6°C 57.7°F14.3°C 86% 6.9 mph SW11.1 kmh SW 5.8 mph9.3 kmh 31.83 in1077.9 mb - 0.00 in0.0 mm 0.00 in0.0 mm
12:45 PM 62.2°F16.8°C 57.6°F14.2°C 85% 5.8 mph SW9.3 kmh SW 5.8 mph9.3 kmh 31.83 in1077.9 mb - 0.00 in0.0 mm 0.00 in0.0 mm
12:50 PM 62.3°F16.8°C 57.7°F14.3°C 85% 5.8 mph SW9.3 kmh SW 6.9 mph11.1 kmh 31.83 in1077.9 mb - 0.00 in0.0 mm 0.00 in0.0 mm
12:55 PM 62.8°F17.1°C 58.2°F14.6°C 85% 5.8 mph SW9.3 kmh SW 6.9 mph11.1 kmh 31.83 in1077.9 mb - 0.00 in0.0 mm 0.00 in0.0 mm
01:00 PM 63.0°F17.2°C 58.4°F14.7°C 85% 5.8 mph SW9.3 kmh SW 5.8 mph9.3 kmh 31.83 in1077.9 mb - 0.00 in0.0 mm 0.00 in0.0 mm
01:10 PM 63.2°F17.3°C 58.3°F14.6°C 84% 4.6 mph SSW7.4 kmh SSW 5.8 mph9.3 kmh 31.83 in1077.9 mb - 0.00 in0.0 mm 0.00 in0.0 mm
01:15 PM 63.3°F17.4°C 58.4°F14.7°C 84% 5.8 mph SW9.3 kmh SW 5.8 mph9.3 kmh 31.83 in1077.9 mb - 0.00 in0.0 mm 0.00 in0.0 mm
01:20 PM 63.2°F17.3°C 58.3°F14.6°C 84% 4.6 mph SW7.4 kmh SW 5.8 mph9.3 kmh 31.83 in1077.9 mb - 0.00 in0.0 mm 0.00 in0.0 mm
01:25 PM 62.3°F16.8°C 57.7°F14.3°C 85% 4.6 mph SSW7.4 kmh SSW 4.6 mph7.4 kmh 31.83 in1077.9 mb - 0.00 in0.0 mm 0.00 in0.0 mm
01:30 PM 61.5°F16.4°C 57.3°F14.1°C 86% 4.6 mph SW7.4 kmh SW 5.8 mph9.3 kmh 31.83 in1077.9 mb - 0.00 in0.0 mm 0.00 in0.0 mm
01:35 PM 61.5°F16.4°C 57.3°F14.1°C 86% 4.6 mph SSW7.4 kmh SSW 5.8 mph9.3 kmh 31.83 in1077.9 mb - 0.00 in0.0 mm 0.00 in0.0 mm
01:40 PM 61.4°F16.3°C 57.2°F14.0°C 86% 4.6 mph SSW7.4 kmh SSW 4.6 mph7.4 kmh 31.83 in1077.9 mb - 0.00 in0.0 mm 0.00 in0.0 mm
01:45 PM 61.5°F16.4°C 57.3°F14.1°C 86% 4.6 mph SW7.4 kmh SW 4.6 mph7.4 kmh 31.83 in1077.9 mb - 0.00 in0.0 mm 0.00 in0.0 mm
01:50 PM 62.3°F16.8°C 58.1°F14.5°C 86% 5.8 mph SSW9.3 kmh SSW 5.8 mph9.3 kmh 31.83 in1077.9 mb - 0.00 in0.0 mm 0.00 in0.0 mm
01:55 PM 64.2°F17.9°C 59.2°F15.1°C 84% 5.8 mph SW9.3 kmh SW 5.8 mph9.3 kmh 31.83 in1077.9 mb - 0.00 in0.0 mm 0.00 in0.0 mm
02:00 PM 65.2°F18.4°C 59.6°F15.3°C 82% 4.6 mph SW7.4 kmh SW 5.8 mph9.3 kmh 31.83 in1077.9 mb - 0.00 in0.0 mm 0.00 in0.0 mm
02:10 PM 64.8°F18.2°C 59.5°F15.3°C 83% 5.8 mph SSW9.3 kmh SSW 5.8 mph9.3 kmh 31.83 in1077.9 mb - 0.00 in0.0 mm 0.00 in0.0 mm
02:15 PM 63.3°F17.4°C 58.7°F14.8°C 85% 4.6 mph SW7.4 kmh SW 4.6 mph7.4 kmh 31.83 in1077.9 mb - 0.00 in0.0 mm 0.00 in0.0 mm
02:20 PM 61.5°F16.4°C 57.6°F14.2°C 87% 4.6 mph SW7.4 kmh SW 4.6 mph7.4 kmh 31.83 in1077.9 mb - 0.00 in0.0 mm 0.00 in0.0 mm
02:25 PM 61.5°F16.4°C 57.9°F14.4°C 88% 4.6 mph SSW7.4 kmh SSW 4.6 mph7.4 kmh 31.83 in1077.9 mb - 0.00 in0.0 mm 0.00 in0.0 mm
02:30 PM 62.1°F16.7°C 58.5°F14.7°C 88% 3.5 mph SW5.6 kmh SW 3.5 mph5.6 kmh 31.83 in1077.9 mb - 0.00 in0.0 mm 0.00 in0.0 mm
02:35 PM 62.9°F17.2°C 58.7°F14.8°C 86% 3.5 mph SW5.6 kmh SW 4.6 mph7.4 kmh 31.83 in1077.9 mb - 0.00 in0.0 mm 0.00 in0.0 mm
02:40 PM 62.7°F17.1°C 58.7°F14.8°C 87% 3.5 mph S5.6 kmh S 4.6 mph7.4 kmh 31.83 in1077.9 mb - 0.00 in0.0 mm 0.00 in0.0 mm
02:45 PM 63.8°F17.7°C 59.2°F15.1°C 85% 2.3 mph SSW3.7 kmh SSW 3.5 mph5.6 kmh 31.83 in1077.9 mb - 0.00 in0.0 mm 0.00 in0.0 mm
02:50 PM 64.8°F18.2°C 59.5°F15.3°C 83% 3.5 mph S5.6 kmh S 3.5 mph5.6 kmh 31.83 in1077.9 mb - 0.00 in0.0 mm 0.00 in0.0 mm
02:55 PM 65.0°F18.3°C 59.7°F15.4°C 83% 3.5 mph S5.6 kmh S 3.5 mph5.6 kmh 31.83 in1077.9 mb - 0.00 in0.0 mm 0.00 in0.0 mm
03:00 PM 65.2°F18.4°C 59.5°F15.3°C 82% 3.5 mph SSW5.6 kmh SSW 3.5 mph5.6 kmh 31.83 in1077.9 mb - 0.00 in0.0 mm 0.00 in0.0 mm
03:10 PM 65.7°F18.7°C 60.0°F15.6°C 82% 4.6 mph SW7.4 kmh SW 4.6 mph7.4 kmh 31.83 in1077.9 mb - 0.00 in0.0 mm 0.00 in0.0 mm
03:15 PM 66.6°F19.2°C 60.9°F16.1°C 82% 3.5 mph SSW5.6 kmh SSW 3.5 mph5.6 kmh 31.83 in1077.9 mb - 0.00 in0.0 mm 0.00 in0.0 mm
03:20 PM 66.4°F19.1°C 60.7°F15.9°C 82% 3.5 mph S5.6 kmh S 3.5 mph5.6 kmh 31.83 in1077.9 mb - 0.00 in0.0 mm 0.00 in0.0 mm
03:25 PM 66.2°F19.0°C 60.5°F15.8°C 82% 2.3 mph S3.7 kmh S 3.5 mph5.6 kmh 31.83 in1077.9 mb - 0.00 in0.0 mm 0.00 in0.0 mm
03:30 PM 67.4°F19.7°C 61.4°F16.3°C 81% 2.3 mph SE3.7 kmh SE 3.5 mph5.6 kmh 31.83 in1077.9 mb - 0.00 in0.0 mm 0.00 in0.0 mm
03:35 PM 67.4°F19.7°C 61.0°F16.1°C 80% 2.3 mph S3.7 kmh S 3.5 mph5.6 kmh 31.83 in1077.9 mb - 0.00 in0.0 mm 0.00 in0.0 mm
03:40 PM 67.3°F19.6°C 61.2°F16.2°C 81% 2.3 mph S3.7 kmh S 3.5 mph5.6 kmh 31.83 in1077.9 mb - 0.00 in0.0 mm 0.00 in0.0 mm
03:45 PM 67.6°F19.8°C 61.9°F16.6°C 82% 3.5 mph SSW5.6 kmh SSW 3.5 mph5.6 kmh 31.83 in1077.9 mb - 0.00 in0.0 mm 0.00 in0.0 mm
03:50 PM 66.6°F19.2°C 61.0°F16.1°C 82% 4.6 mph S7.4 kmh S 4.6 mph7.4 kmh 31.83 in1077.9 mb - 0.00 in0.0 mm 0.00 in0.0 mm
03:55 PM 66.4°F19.1°C 61.1°F16.2°C 83% 3.5 mph S5.6 kmh S 4.6 mph7.4 kmh 31.83 in1077.9 mb - 0.00 in0.0 mm 0.00 in0.0 mm
04:00 PM 66.0°F18.9°C 61.0°F16.1°C 84% 3.5 mph SSW5.6 kmh SSW 3.5 mph5.6 kmh 31.83 in1077.9 mb - 0.00 in0.0 mm 0.00 in0.0 mm
04:10 PM 67.0°F19.4°C 61.7°F16.5°C 83% 3.5 mph S5.6 kmh S 3.5 mph5.6 kmh 31.83 in1077.9 mb - 0.00 in0.0 mm 0.00 in0.0 mm
04:15 PM 66.8°F19.3°C 61.5°F16.4°C 83% 3.5 mph S5.6 kmh S 4.6 mph7.4 kmh 31.83 in1077.9 mb - 0.00 in0.0 mm 0.00 in0.0 mm
04:20 PM 66.0°F18.9°C 61.0°F16.1°C 84% 3.5 mph SSW5.6 kmh SSW 3.5 mph5.6 kmh 31.83 in1077.9 mb - 0.00 in0.0 mm 0.00 in0.0 mm
04:25 PM 66.9°F19.4°C 61.6°F16.4°C 83% 2.3 mph S3.7 kmh S 2.3 mph3.7 kmh 31.83 in1077.9 mb - 0.00 in0.0 mm 0.00 in0.0 mm
04:30 PM 68.3°F20.2°C 61.9°F16.6°C 80% 2.3 mph SSW3.7 kmh SSW 3.5 mph5.6 kmh 31.83 in1077.9 mb - 0.00 in0.0 mm 0.00 in0.0 mm
04:35 PM 68.0°F20.0°C 61.6°F16.4°C 80% 3.5 mph SW5.6 kmh SW 3.5 mph5.6 kmh 31.83 in1077.9 mb - 0.00 in0.0 mm 0.00 in0.0 mm
04:40 PM 68.1°F20.1°C 62.4°F16.9°C 82% 3.5 mph S5.6 kmh S 3.5 mph5.6 kmh 31.83 in1077.9 mb - 0.00 in0.0 mm 0.00 in0.0 mm
04:45 PM 67.5°F19.7°C 62.1°F16.7°C 83% 2.3 mph S3.7 kmh S 2.3 mph3.7 kmh 31.83 in1077.9 mb - 0.00 in0.0 mm 0.00 in0.0 mm
04:50 PM 66.7°F19.3°C 61.7°F16.5°C 84% 3.5 mph S5.6 kmh S 4.6 mph7.4 kmh 31.83 in1077.9 mb - 0.00 in0.0 mm 0.00 in0.0 mm
04:55 PM 67.1°F19.5°C 61.8°F16.6°C 83% 3.5 mph S5.6 kmh S 3.5 mph5.6 kmh 31.83 in1077.9 mb - 0.00 in0.0 mm 0.00 in0.0 mm
05:00 PM 67.2°F19.6°C 61.8°F16.6°C 83% 3.5 mph SSW5.6 kmh SSW 3.5 mph5.6 kmh 31.83 in1077.9 mb - 0.00 in0.0 mm 0.00 in0.0 mm
05:10 PM 68.8°F20.4°C 62.4°F16.9°C 80% 2.3 mph SSW3.7 kmh SSW 3.5 mph5.6 kmh 31.83 in1077.9 mb - 0.00 in0.0 mm 0.00 in0.0 mm
05:15 PM 69.7°F20.9°C 62.9°F17.2°C 79% 2.3 mph S3.7 kmh S 3.5 mph5.6 kmh 31.83 in1077.9 mb - 0.00 in0.0 mm 0.00 in0.0 mm
05:20 PM 69.4°F20.8°C 62.6°F17.0°C 79% 2.3 mph S3.7 kmh S 2.3 mph3.7 kmh 31.83 in1077.9 mb - 0.00 in0.0 mm 0.00 in0.0 mm
05:25 PM 69.5°F20.8°C 62.7°F17.1°C 79% 2.3 mph S3.7 kmh S 3.5 mph5.6 kmh 31.83 in1077.9 mb - 0.00 in0.0 mm 0.00 in0.0 mm
05:30 PM 69.6°F20.9°C 62.8°F17.1°C 79% 3.5 mph SSW5.6 kmh SSW 3.5 mph5.6 kmh 31.83 in1077.9 mb - 0.00 in0.0 mm 0.00 in0.0 mm
05:35 PM 68.5°F20.3°C 61.7°F16.5°C 79% 3.5 mph S5.6 kmh S 4.6 mph7.4 kmh 31.83 in1077.9 mb - 0.00 in0.0 mm 0.00 in0.0 mm
05:40 PM 68.6°F20.3°C 62.5°F16.9°C 81% 2.3 mph SSW3.7 kmh SSW 2.3 mph3.7 kmh 31.83 in1077.9 mb - 0.00 in0.0 mm 0.00 in0.0 mm
05:45 PM 68.7°F20.4°C 62.3°F16.8°C 80% 2.3 mph S3.7 kmh S 2.3 mph3.7 kmh 31.83 in1077.9 mb - 0.00 in0.0 mm 0.00 in0.0 mm
05:50 PM 67.4°F19.7°C 61.7°F16.5°C 82% 2.3 mph S3.7 kmh S 2.3 mph3.7 kmh 31.83 in1077.9 mb - 0.00 in0.0 mm 0.00 in0.0 mm
05:55 PM 67.3°F19.6°C 62.0°F16.7°C 83% 2.3 mph S3.7 kmh S 3.5 mph5.6 kmh 31.83 in1077.9 mb - 0.00 in0.0 mm 0.00 in0.0 mm
06:00 PM 66.8°F19.3°C 61.4°F16.3°C 83% 3.5 mph SSW5.6 kmh SSW 3.5 mph5.6 kmh 31.83 in1077.9 mb - 0.00 in0.0 mm 0.00 in0.0 mm
06:10 PM 68.1°F20.1°C 61.7°F16.5°C 80% 3.5 mph SW5.6 kmh SW 3.5 mph5.6 kmh 31.83 in1077.9 mb - 0.00 in0.0 mm 0.00 in0.0 mm
06:15 PM 68.3°F20.2°C 61.9°F16.6°C 80% 2.3 mph SSW3.7 kmh SSW 3.5 mph5.6 kmh 31.83 in1077.9 mb - 0.00 in0.0 mm 0.00 in0.0 mm
06:20 PM 68.3°F20.2°C 61.5°F16.4°C 79% 3.5 mph SSW5.6 kmh SSW 4.6 mph7.4 kmh 31.83 in1077.9 mb - 0.00 in0.0 mm 0.00 in0.0 mm
06:25 PM 68.2°F20.1°C 61.4°F16.3°C 79% 3.5 mph SSW5.6 kmh SSW 3.5 mph5.6 kmh 31.83 in1077.9 mb - 0.00 in0.0 mm 0.00 in0.0 mm
06:30 PM 66.6°F19.2°C 61.0°F16.1°C 82% 3.5 mph WSW5.6 kmh WSW 4.6 mph7.4 kmh 31.83 in1077.9 mb - 0.00 in0.0 mm 0.00 in0.0 mm
06:35 PM 65.3°F18.5°C 60.4°F15.8°C 84% 4.6 mph SSW7.4 kmh SSW 4.6 mph7.4 kmh 31.83 in1077.9 mb - 0.00 in0.0 mm 0.00 in0.0 mm
06:40 PM 64.8°F18.2°C 60.2°F15.7°C 85% 3.5 mph SW5.6 kmh SW 3.5 mph5.6 kmh 31.83 in1077.9 mb - 0.00 in0.0 mm 0.00 in0.0 mm
06:45 PM 65.4°F18.6°C 60.8°F16.0°C 85% 2.3 mph SSW3.7 kmh SSW 2.3 mph3.7 kmh 31.83 in1077.9 mb - 0.00 in0.0 mm 0.00 in0.0 mm
06:50 PM 66.4°F19.1°C 60.7°F15.9°C 82% 3.5 mph SW5.6 kmh SW 4.6 mph7.4 kmh 31.83 in1077.9 mb - 0.00 in0.0 mm 0.00 in0.0 mm
06:55 PM 65.0°F18.3°C 60.0°F15.6°C 84% 4.6 mph SSW7.4 kmh SSW 4.6 mph7.4 kmh 31.83 in1077.9 mb - 0.00 in0.0 mm 0.00 in0.0 mm
07:00 PM 64.2°F17.9°C 59.6°F15.3°C 85% 3.5 mph SSW5.6 kmh SSW 4.6 mph7.4 kmh 31.83 in1077.9 mb - 0.00 in0.0 mm 0.00 in0.0 mm
07:10 PM 66.3°F19.1°C 59.6°F15.3°C 79% 4.6 mph WSW7.4 kmh WSW 5.8 mph9.3 kmh 31.83 in1077.9 mb - 0.00 in0.0 mm 0.00 in0.0 mm
07:15 PM 67.0°F19.4°C 58.4°F14.7°C 74% 5.8 mph SW9.3 kmh SW 6.9 mph11.1 kmh 31.83 in1077.9 mb - 0.00 in0.0 mm 0.00 in0.0 mm
07:20 PM 67.7°F19.8°C 58.8°F14.9°C 73% 3.5 mph W5.6 kmh W 3.5 mph5.6 kmh 31.83 in1077.9 mb - 0.00 in0.0 mm 0.00 in0.0 mm
07:25 PM 66.8°F19.3°C 59.3°F15.2°C 77% 3.5 mph SSW5.6 kmh SSW 4.6 mph7.4 kmh 31.83 in1077.9 mb - 0.00 in0.0 mm 0.00 in0.0 mm
07:30 PM 65.9°F18.8°C 59.2°F15.1°C 79% 1.2 mph SW1.9 kmh SW 1.2 mph1.9 kmh 31.83 in1077.9 mb - 0.00 in0.0 mm 0.00 in0.0 mm
07:35 PM 65.9°F18.8°C 59.2°F15.1°C 79% 1.2 mph W1.9 kmh W 2.3 mph3.7 kmh 31.83 in1077.9 mb - 0.00 in0.0 mm 0.00 in0.0 mm
07:40 PM 66.4°F19.1°C 59.7°F15.4°C 79% 1.2 mph WSW1.9 kmh WSW 2.3 mph3.7 kmh 31.83 in1077.9 mb - 0.00 in0.0 mm 0.00 in0.0 mm
07:45 PM 66.3°F19.1°C 59.6°F15.3°C 79% 2.3 mph WSW3.7 kmh WSW 3.5 mph5.6 kmh 31.83 in1077.9 mb - 0.00 in0.0 mm 0.00 in0.0 mm
07:50 PM 65.9°F18.8°C 59.2°F15.1°C 79% 2.3 mph SSW3.7 kmh SSW 2.3 mph3.7 kmh 31.83 in1077.9 mb - 0.00 in0.0 mm 0.00 in0.0 mm
07:55 PM 66.2°F19.0°C 59.5°F15.3°C 79% 1.2 mph SW1.9 kmh SW 1.2 mph1.9 kmh 31.83 in1077.9 mb - 0.00 in0.0 mm 0.00 in0.0 mm
08:00 PM 67.3°F19.6°C 59.8°F15.4°C 77% 1.2 mph WSW1.9 kmh WSW 2.3 mph3.7 kmh 31.83 in1077.9 mb - 0.00 in0.0 mm 0.00 in0.0 mm
08:10 PM 66.6°F19.2°C 59.6°F15.3°C 78% 1.2 mph WSW1.9 kmh WSW 2.3 mph3.7 kmh 31.83 in1077.9 mb - 0.00 in0.0 mm 0.00 in0.0 mm
08:15 PM 66.6°F19.2°C 59.9°F15.5°C 79% Calm Calm -- 31.83 in1077.9 mb - 0.00 in0.0 mm 0.00 in0.0 mm
08:20 PM 66.3°F19.1°C 59.6°F15.3°C 79% Calm Calm -- 31.83 in1077.9 mb - 0.00 in0.0 mm 0.00 in0.0 mm
08:30 PM 65.9°F18.8°C 59.2°F15.1°C 79% Calm Calm -- 31.83 in1077.9 mb - 0.00 in0.0 mm 0.00 in0.0 mm
08:35 PM 65.3°F18.5°C 59.0°F15.0°C 80% Calm Calm -- 31.83 in1077.9 mb - 0.00 in0.0 mm 0.00 in0.0 mm
08:40 PM 64.8°F18.2°C 58.8°F14.9°C 81% Calm Calm -- 31.83 in1077.9 mb - 0.00 in0.0 mm 0.00 in0.0 mm
08:45 PM 64.1°F17.8°C 58.5°F14.7°C 82% 2.3 mph N3.7 kmh N 2.3 mph3.7 kmh 31.83 in1077.9 mb - 0.00 in0.0 mm 0.00 in0.0 mm
08:50 PM 63.7°F17.6°C 58.4°F14.7°C 83% 1.2 mph SW1.9 kmh SW 2.3 mph3.7 kmh 31.83 in1077.9 mb - 0.00 in0.0 mm 0.00 in0.0 mm
08:55 PM 63.6°F17.6°C 58.0°F14.4°C 82% Calm Calm -- 31.83 in1077.9 mb - 0.00 in0.0 mm 0.00 in0.0 mm
09:00 PM 63.5°F17.5°C 57.9°F14.4°C 82% Calm Calm -- 31.83 in1077.9 mb - 0.00 in0.0 mm 0.00 in0.0 mm
09:10 PM 63.2°F17.3°C 57.9°F14.4°C 83% Calm Calm 2.3 mph3.7 kmh 31.83 in1077.9 mb - 0.00 in0.0 mm 0.00 in0.0 mm
09:15 PM 62.6°F17.0°C 58.0°F14.4°C 85% 1.2 mph SE1.9 kmh SE 1.2 mph1.9 kmh 31.83 in1077.9 mb - 0.00 in0.0 mm 0.00 in0.0 mm
09:20 PM 62.3°F16.8°C 58.0°F14.4°C 86% Calm Calm -- 31.83 in1077.9 mb - 0.00 in0.0 mm 0.00 in0.0 mm
09:25 PM 61.9°F16.6°C 57.6°F14.2°C 86% Calm Calm -- 31.83 in1077.9 mb - 0.00 in0.0 mm 0.00 in0.0 mm
09:30 PM 61.4°F16.3°C 57.5°F14.2°C 87% Calm Calm -- 31.83 in1077.9 mb - 0.00 in0.0 mm 0.00 in0.0 mm
09:35 PM 61.0°F16.1°C 57.4°F14.1°C 88% Calm Calm -- 31.83 in1077.9 mb - 0.00 in0.0 mm 0.00 in0.0 mm
09:40 PM 60.6°F15.9°C 57.0°F13.9°C 88% Calm Calm -- 31.83 in1077.9 mb - 0.00 in0.0 mm 0.00 in0.0 mm
09:45 PM 60.6°F15.9°C 57.0°F13.9°C 88% Calm Calm -- 31.83 in1077.9 mb - 0.00 in0.0 mm 0.00 in0.0 mm
09:50 PM 60.4°F15.8°C 57.5°F14.2°C 90% Calm Calm -- 31.83 in1077.9 mb - 0.00 in0.0 mm 0.00 in0.0 mm
09:55 PM 60.1°F15.6°C 57.2°F14.0°C 90% Calm Calm -- 31.83 in1077.9 mb - 0.00 in0.0 mm 0.00 in0.0 mm
10:00 PM 59.9°F15.5°C 57.2°F14.0°C 91% Calm Calm -- 31.83 in1077.9 mb - 0.00 in0.0 mm 0.00 in0.0 mm
10:10 PM 60.1°F15.6°C 57.7°F14.3°C 92% Calm Calm -- 31.83 in1077.9 mb - 0.00 in0.0 mm 0.00 in0.0 mm
10:15 PM 60.5°F15.8°C 58.1°F14.5°C 92% Calm Calm 1.2 mph1.9 kmh 31.83 in1077.9 mb - 0.00 in0.0 mm 0.00 in0.0 mm
10:20 PM 60.8°F16.0°C 58.1°F14.5°C 91% 2.3 mph NW3.7 kmh NW 2.3 mph3.7 kmh 31.83 in1077.9 mb - 0.00 in0.0 mm 0.00 in0.0 mm
10:25 PM 61.0°F16.1°C 58.6°F14.8°C 92% 2.3 mph NW3.7 kmh NW 1.2 mph1.9 kmh 31.83 in1077.9 mb - 0.00 in0.0 mm 0.00 in0.0 mm
10:30 PM 60.5°F15.8°C 58.5°F14.7°C 93% Calm Calm 1.2 mph1.9 kmh 31.83 in1077.9 mb - 0.00 in0.0 mm 0.00 in0.0 mm
10:35 PM 60.8°F16.0°C 59.3°F15.2°C 95% 2.3 mph NW3.7 kmh NW 2.3 mph3.7 kmh 31.83 in1077.9 mb - 0.00 in0.0 mm 0.00 in0.0 mm
10:40 PM 60.6°F15.9°C 59.2°F15.1°C 95% 1.2 mph NW1.9 kmh NW 1.2 mph1.9 kmh 31.83 in1077.9 mb - 0.00 in0.0 mm 0.00 in0.0 mm
10:45 PM 60.4°F15.8°C 59.3°F15.2°C 96% Calm Calm 1.2 mph1.9 kmh 31.83 in1077.9 mb - 0.00 in0.0 mm 0.00 in0.0 mm
10:50 PM 60.5°F15.8°C 59.6°F15.3°C 97% 1.2 mph NW1.9 kmh NW 1.2 mph1.9 kmh 31.83 in1077.9 mb - 0.00 in0.0 mm 0.00 in0.0 mm
10:55 PM 59.6°F15.3°C 58.8°F14.9°C 97% Calm Calm 1.2 mph1.9 kmh 31.83 in1077.9 mb - 0.00 in0.0 mm 0.00 in0.0 mm
11:00 PM 59.4°F15.2°C 58.5°F14.7°C 97% Calm Calm -- 31.83 in1077.9 mb - 0.00 in0.0 mm 0.00 in0.0 mm
11:10 PM 58.9°F14.9°C 58.7°F14.8°C 99% 1.2 mph NW1.9 kmh NW 1.2 mph1.9 kmh 31.83 in1077.9 mb - 0.00 in0.0 mm 0.00 in0.0 mm
11:15 PM 58.8°F14.9°C 58.5°F14.7°C 99% 1.2 mph NW1.9 kmh NW 1.2 mph1.9 kmh 31.83 in1077.9 mb - 0.00 in0.0 mm 0.00 in0.0 mm
11:20 PM 58.8°F14.9°C 58.5°F14.7°C 99% Calm Calm 1.2 mph1.9 kmh 31.83 in1077.9 mb - 0.00 in0.0 mm 0.00 in0.0 mm
11:25 PM 59.0°F15.0°C 58.8°F14.9°C 99% 1.2 mph WNW1.9 kmh WNW 1.2 mph1.9 kmh 31.83 in1077.9 mb - 0.00 in0.0 mm 0.00 in0.0 mm
11:30 PM 59.2°F15.1°C 58.9°F14.9°C 99% 1.2 mph NW1.9 kmh NW 2.3 mph3.7 kmh 31.83 in1077.9 mb - 0.00 in0.0 mm 0.00 in0.0 mm
11:35 PM 59.0°F15.0°C 58.7°F14.8°C 99% 2.3 mph WNW3.7 kmh WNW 2.3 mph3.7 kmh 31.83 in1077.9 mb - 0.00 in0.0 mm 0.00 in0.0 mm
11:40 PM 59.2°F15.1°C 58.9°F14.9°C 99% 1.2 mph WNW1.9 kmh WNW 2.3 mph3.7 kmh 31.83 in1077.9 mb - 0.00 in0.0 mm 0.00 in0.0 mm
11:45 PM 59.4°F15.2°C 59.1°F15.1°C 99% 2.3 mph WNW3.7 kmh WNW 2.3 mph3.7 kmh 31.83 in1077.9 mb - 0.00 in0.0 mm 0.00 in0.0 mm
11:50 PM 59.4°F15.2°C 59.1°F15.1°C 99% 1.2 mph WNW1.9 kmh WNW 2.3 mph3.7 kmh 31.83 in1077.9 mb - 0.00 in0.0 mm 0.00 in0.0 mm
11:55 PM 59.4°F15.2°C 59.1°F15.1°C 99% 2.3 mph WNW3.7 kmh WNW 2.3 mph3.7 kmh 31.83 in1077.9 mb - 0.00 in0.0 mm 0.00 in0.0 mm